EPPO Airport Information

Runway Information
Runway 02 Length 2296 ft width 984 ft
Elevation 0 ft Threshold 0 ft Heading 0
Runway 20 Length 2296 ft Width 984 ft
Elevation 0 ft Threshold 0 ft Heading 0
Runway 10 Length 8215 ft width 164 ft
Elevation 308 ft Threshold 0 ft Heading 108
Runway 28 Length 8215 ft Width 164 ft
Elevation 289 ft Threshold 0 ft Heading 288
Airport Frequencies
Type APP Name POZNAN APP Frequency 135.525 MHZ
Type ATIS Name POZNAN ATI Frequency 124.7 MHZ
Type TWR Name POZNAN TWR Frequency 119.975 MHZ
Airport Navaids
Type NDB Name Poznan Frequency 429 KHZ
Airport Weather Information & NOTAM
ADDS - METARS form results

(0941 UTC 17 November 2018)
Data provider http://aviationweather.gov/metar/data/
 
METAR text: EPPO 170930Z 08007KT 3000 BR OVC002 M01/M01 Q1041
Conditions at: EPPO (POZNAN/LAWICA , PL) observed 0930 UTC 17 November 2018
Temperature: -1.0°C (30°F)
Dewpoint: -1.0°C (30°F) [RH = 100%]
Pressure (altimeter): 30.74 inches Hg (1041.0 mb)
Winds: from the E (80 degrees) at 8 MPH (7 knots; 3.6 m/s)
Visibility: 1.86 miles (2.99 km)
Ceiling: 200 feet AGL
Clouds: overcast cloud deck at 200 feet AGL
Weather: BR  (mist)

METAR text: EPPO 170900Z 05007KT 2400 BR OVC001 M01/M01 Q1041
Conditions at: EPPO (POZNAN/LAWICA , PL) observed 0900 UTC 17 November 2018
Temperature: -1.0°C (30°F)
Dewpoint: -1.0°C (30°F) [RH = 100%]
Pressure (altimeter): 30.74 inches Hg (1041.0 mb)
Winds: from the NE (50 degrees) at 8 MPH (7 knots; 3.6 m/s)
Visibility: 1.49 miles (2.40 km)
Ceiling: 100 feet AGL
Clouds: overcast cloud deck at 100 feet AGL
Weather: BR  (mist)

Forecast for: AMD
Text: TAF AMD EPPO 170748Z 1707/1806 08007KT CAVOK
Forecast period: 0700 UTC 17 November 2018 to 0600 UTC 18 November 2018
Forecast type: FROM: standard forecast or significant change
Winds: from the E (80 degrees) at 8 MPH (7 knots; 3.6 m/s)
Visibility: 6 or more miles 10+ km)
Ceiling: unknown
Clouds: missing
Weather: NSW  (no significant weather)
Text: TEMPO 1707/1709 0500 FG BKN001
Forecast period: 0700 to 0900 UTC 17 November 2018
Forecast type: TEMPORARY: The following changes expected for less than half the time period
Visibility: 0.31 miles (0.50 km)
Ceiling: 100 feet AGL
Clouds: broken clouds at 100 feet AGL
Weather: FG  (fog)
Text: TEMPO 1723/1806 2000 BR
Forecast period: 2300 UTC 17 November 2018 to 0600 UTC 18 November 2018
Forecast type: TEMPORARY: The following changes expected for less than half the time period
Visibility: 1.24 miles (2.00 km)
Ceiling: unknown
Clouds: missing
Weather: BR  (mist)